createdAt,value
2024-04-13T00:01:13.582Z,1.83
2024-04-13T00:03:42.685Z,1.70
2024-04-13T00:06:15.139Z,2.17
2024-04-13T00:08:42.270Z,2.17
2024-04-13T00:11:12.275Z,2.28
2024-04-13T00:13:39.643Z,2.55
2024-04-13T00:16:09.422Z,2.38
2024-04-13T00:18:36.443Z,2.00
2024-04-13T00:21:06.397Z,2.25
2024-04-13T00:23:36.215Z,2.45
2024-04-13T00:26:06.275Z,2.28
2024-04-13T00:28:34.679Z,2.22
2024-04-13T00:31:06.337Z,2.28
2024-04-13T00:33:35.028Z,2.33
2024-04-13T00:36:06.735Z,2.78
2024-04-13T00:38:36.379Z,2.60
2024-04-13T00:41:06.682Z,2.40
2024-04-13T00:43:33.697Z,2.13
2024-04-13T00:46:08.819Z,2.42
2024-04-13T00:48:38.238Z,1.90
2024-04-13T00:51:13.548Z,2.60
2024-04-13T00:53:43.489Z,2.63
2024-04-13T00:56:15.069Z,2.60
2024-04-13T00:58:44.559Z,2.33
2024-04-13T01:01:14.883Z,2.58
2024-04-13T01:03:45.528Z,2.22
2024-04-13T01:06:16.178Z,2.85
2024-04-13T01:08:45.772Z,2.35
2024-04-13T01:11:16.357Z,3.13
2024-04-13T01:13:43.558Z,2.90
2024-04-13T01:16:13.061Z,2.63
2024-04-13T01:18:41.386Z,2.90
2024-04-13T01:21:11.431Z,2.80
2024-04-13T01:23:47.876Z,2.70
2024-04-13T01:26:21.592Z,3.30
2024-04-13T01:28:48.574Z,3.00
2024-04-13T01:31:18.453Z,3.40
2024-04-13T01:33:45.520Z,3.20
2024-04-13T01:36:15.203Z,2.80
2024-04-13T01:38:42.277Z,3.10
2024-04-13T01:41:11.918Z,2.70
2024-04-13T01:43:41.533Z,2.58
2024-04-13T01:46:11.171Z,2.80
2024-04-13T01:48:39.227Z,3.30
2024-04-13T01:51:09.055Z,3.22
2024-04-13T01:53:36.192Z,2.70
2024-04-13T01:56:07.256Z,2.72
2024-04-13T01:58:34.206Z,3.08
2024-04-13T02:01:09.678Z,3.08
2024-04-13T02:03:37.599Z,3.70
2024-04-13T02:06:08.050Z,2.83
2024-04-13T02:08:35.490Z,3.03
2024-04-13T02:11:05.996Z,3.00
2024-04-13T02:13:33.436Z,3.17
2024-04-13T02:16:03.335Z,2.88
2024-04-13T02:18:33.169Z,3.30
2024-04-13T02:21:02.964Z,2.60
2024-04-13T02:23:30.037Z,3.17
2024-04-13T02:26:01.131Z,3.70
2024-04-13T02:28:28.110Z,3.75
2024-04-13T02:30:57.843Z,3.50
2024-04-13T02:33:25.234Z,3.92
2024-04-13T02:36:04.682Z,4.25
2024-04-13T02:38:33.866Z,4.55
2024-04-13T02:41:05.038Z,4.03
2024-04-13T02:43:32.639Z,4.43
2024-04-13T02:46:09.131Z,4.25
2024-04-13T02:48:36.381Z,4.20
2024-04-13T02:51:10.104Z,4.38
2024-04-13T02:53:38.334Z,4.30
2024-04-13T02:56:08.898Z,4.72
2024-04-13T02:58:36.302Z,4.47
2024-04-13T03:01:07.303Z,4.97
2024-04-13T03:03:34.685Z,4.72
2024-04-13T03:06:05.502Z,5.03
2024-04-13T03:08:35.261Z,4.82
2024-04-13T03:11:06.101Z,4.72
2024-04-13T03:13:33.198Z,4.60
2024-04-13T03:16:04.694Z,4.82
2024-04-13T03:18:31.846Z,4.70
2024-04-13T03:21:01.769Z,5.10
2024-04-13T03:23:30.810Z,4.70
2024-04-13T03:26:03.434Z,4.25
2024-04-13T03:31:01.187Z,4.50
2024-04-13T03:33:28.531Z,4.78
2024-04-13T03:36:03.549Z,4.72
2024-04-13T03:38:33.240Z,4.40
2024-04-13T03:41:07.785Z,3.45
2024-04-13T03:43:38.313Z,3.90
2024-04-13T03:46:06.280Z,4.07
2024-04-13T03:48:39.619Z,4.20
2024-04-13T03:51:07.913Z,4.43
2024-04-13T03:53:37.711Z,3.80
2024-04-13T03:56:07.768Z,4.43
2024-04-13T03:58:38.153Z,5.18
2024-04-13T04:01:06.250Z,4.90
2024-04-13T04:03:36.660Z,4.97
2024-04-13T04:06:06.041Z,5.15
2024-04-13T04:08:36.320Z,4.13
2024-04-13T04:11:03.445Z,5.07
2024-04-13T04:13:35.668Z,3.97
2024-04-13T04:16:02.651Z,4.90
2024-04-13T04:18:32.446Z,4.90
2024-04-13T04:20:59.487Z,5.43
2024-04-13T04:23:29.143Z,5.15
2024-04-13T04:25:56.232Z,4.63
2024-04-13T04:28:25.845Z,5.35
2024-04-13T04:30:55.548Z,5.03
2024-04-13T04:33:25.788Z,4.43
2024-04-13T04:35:53.697Z,5.18
2024-04-13T04:38:24.377Z,4.15
2024-04-13T04:40:51.382Z,5.32
2024-04-13T04:43:20.985Z,5.00
2024-04-13T04:45:47.986Z,4.78
2024-04-13T04:48:20.353Z,4.85
2024-04-13T04:50:57.350Z,4.53
2024-04-13T04:53:28.194Z,4.95
2024-04-13T04:55:55.874Z,5.72
2024-04-13T04:58:25.536Z,4.88
2024-04-13T05:00:52.672Z,4.65
2024-04-13T05:03:26.347Z,3.67
2024-04-13T05:05:53.490Z,3.97
2024-04-13T05:08:23.100Z,4.18
2024-04-13T05:10:50.089Z,4.10
2024-04-13T05:13:20.386Z,4.07
2024-04-13T05:15:47.386Z,4.20
2024-04-13T05:18:17.212Z,3.63
2024-04-13T05:20:46.935Z,3.90
2024-04-13T05:23:17.548Z,4.25
2024-04-13T05:25:44.581Z,4.13
2024-04-13T05:28:14.163Z,4.60
2024-04-13T05:30:46.741Z,5.20
2024-04-13T05:35:47.552Z,4.82
2024-04-13T05:38:17.247Z,5.25
2024-04-13T05:40:44.347Z,4.93
2024-04-13T05:43:14.010Z,4.78
2024-04-13T05:45:41.147Z,5.20
2024-04-13T05:48:11.418Z,5.10
2024-04-13T05:50:39.229Z,5.40
2024-04-13T05:53:11.508Z,4.72
2024-04-13T05:55:40.799Z,4.88
2024-04-13T05:58:13.697Z,5.20
2024-04-13T06:00:41.108Z,5.78
2024-04-13T06:03:10.790Z,5.15
2024-04-13T06:05:40.993Z,5.07
2024-04-13T06:08:14.398Z,5.35
2024-04-13T06:10:41.753Z,5.75
2024-04-13T06:13:11.299Z,5.70
2024-04-13T06:15:39.342Z,5.32
2024-04-13T06:18:09.190Z,5.97
2024-04-13T06:20:36.210Z,5.57
2024-04-13T06:23:05.838Z,5.18
2024-04-13T06:25:35.528Z,5.05
2024-04-13T06:28:05.165Z,5.50
2024-04-13T06:30:32.222Z,5.93
2024-04-13T06:33:01.932Z,5.18
2024-04-13T06:35:28.939Z,5.65
2024-04-13T06:37:58.456Z,5.35
2024-04-13T06:40:25.563Z,5.57
2024-04-13T06:42:57.848Z,5.85
2024-04-13T06:45:25.264Z,6.28
2024-04-13T06:47:54.871Z,5.22
2024-04-13T06:50:21.916Z,5.80
2024-04-13T06:52:51.569Z,6.03
2024-04-13T06:55:18.694Z,5.50
2024-04-13T06:57:48.337Z,5.70
2024-04-13T07:00:18.510Z,5.07
2024-04-13T07:02:48.743Z,5.57
2024-04-13T07:05:15.909Z,4.97
2024-04-13T07:07:45.456Z,5.78
2024-04-13T07:10:12.458Z,5.60
2024-04-13T07:12:42.096Z,5.15
2024-04-13T07:15:09.906Z,5.30
2024-04-13T07:17:42.255Z,5.32
2024-04-13T07:22:39.535Z,4.43
2024-04-13T07:25:06.804Z,5.18
2024-04-13T07:27:36.668Z,5.53
2024-04-13T07:30:04.359Z,5.00
2024-04-13T07:32:34.038Z,5.00
2024-04-13T07:35:05.031Z,5.13
2024-04-13T07:37:35.089Z,5.53
2024-04-13T07:40:02.057Z,5.03
2024-04-13T07:42:31.734Z,4.95
2024-04-13T07:44:58.678Z,4.88
2024-04-13T07:47:28.397Z,4.28
2024-04-13T07:49:55.430Z,4.50
2024-04-13T07:52:27.636Z,4.30
2024-04-13T07:54:54.592Z,4.63
2024-04-13T07:57:24.361Z,4.47
2024-04-13T07:59:51.365Z,4.90
2024-04-13T08:02:21.052Z,4.90
2024-04-13T08:04:48.260Z,4.97
2024-04-13T08:07:17.874Z,4.10
2024-04-13T08:09:47.607Z,4.18
2024-04-13T08:12:17.213Z,4.82
2024-04-13T08:14:44.348Z,4.10
2024-04-13T08:17:14.647Z,4.30
2024-04-13T08:19:41.841Z,5.13
2024-04-13T08:22:11.444Z,4.15
2024-04-13T08:24:38.474Z,3.83
2024-04-13T08:27:10.937Z,4.20
2024-04-13T08:32:08.657Z,3.70
2024-04-13T08:34:35.630Z,4.03
2024-04-13T08:37:05.296Z,4.53
2024-04-13T08:39:32.360Z,3.00
2024-04-13T08:42:07.833Z,3.72
2024-04-13T08:44:38.294Z,3.65
2024-04-13T08:47:09.667Z,3.95
2024-04-13T08:49:40.903Z,3.75
2024-04-13T08:52:11.393Z,3.50
2024-04-13T08:54:38.599Z,3.30
2024-04-13T08:57:09.977Z,3.30
2024-04-13T08:59:41.298Z,3.03
2024-04-13T09:02:17.276Z,3.08
2024-04-13T09:04:44.448Z,3.70
2024-04-13T09:07:14.653Z,3.38
2024-04-13T09:09:41.919Z,2.72
2024-04-13T09:12:11.756Z,3.45
2024-04-13T09:14:42.064Z,2.83
2024-04-13T09:17:12.038Z,2.88
2024-04-13T09:19:39.068Z,3.20
2024-04-13T09:22:10.587Z,3.38
2024-04-13T09:24:41.219Z,2.87
2024-04-13T09:27:18.106Z,3.50
2024-04-13T09:29:48.418Z,3.60
2024-04-13T09:32:26.671Z,2.80
2024-04-13T09:34:55.578Z,3.85
2024-04-13T09:37:26.026Z,2.95
2024-04-13T09:40:01.585Z,3.47
2024-04-13T09:42:31.944Z,2.97
2024-04-13T09:45:06.904Z,3.03
2024-04-13T09:47:37.112Z,3.50
2024-04-13T09:50:05.255Z,3.20
2024-04-13T09:52:35.943Z,2.67
2024-04-13T09:57:33.393Z,2.90
2024-04-13T10:00:02.490Z,3.53
2024-04-13T10:02:37.968Z,3.15
2024-04-13T10:05:05.796Z,3.05
2024-04-13T10:07:37.489Z,3.38
2024-04-13T10:10:07.402Z,3.75
2024-04-13T10:12:41.171Z,3.28
2024-04-13T10:15:10.299Z,3.38
2024-04-13T10:17:44.831Z,3.13
2024-04-13T10:20:11.960Z,2.95
2024-04-13T10:22:41.620Z,2.85
2024-04-13T10:25:09.375Z,3.47
2024-04-13T10:27:41.570Z,3.50
2024-04-13T10:30:09.266Z,2.80
2024-04-13T10:32:48.817Z,3.40
2024-04-13T10:35:20.650Z,3.50
2024-04-13T10:37:50.286Z,3.35
2024-04-13T10:40:25.368Z,2.50
2024-04-13T10:42:54.991Z,3.30
2024-04-13T10:45:22.141Z,3.08
2024-04-13T10:47:54.663Z,2.88
2024-04-13T10:52:51.109Z,2.55
2024-04-13T10:55:20.019Z,2.80
2024-04-13T10:57:50.664Z,3.15
2024-04-13T11:00:19.263Z,2.75
2024-04-13T11:02:51.382Z,2.90
2024-04-13T11:05:22.178Z,2.53
2024-04-13T11:07:52.811Z,3.35
2024-04-13T11:10:20.319Z,2.88
2024-04-13T11:12:52.217Z,3.10
2024-04-13T11:15:20.607Z,3.33
2024-04-13T11:17:51.118Z,3.20
2024-04-13T11:20:18.367Z,2.38
2024-04-13T11:22:50.707Z,2.20
2024-04-13T11:27:49.893Z,2.30
2024-04-13T11:30:18.810Z,2.42
2024-04-13T11:32:48.925Z,2.90
2024-04-13T11:35:17.228Z,2.63
2024-04-13T11:38:01.615Z,2.38
2024-04-13T11:40:30.965Z,2.47
2024-04-13T11:43:01.195Z,2.40
2024-04-13T11:45:28.565Z,2.65
2024-04-13T11:47:58.651Z,2.45
2024-04-13T11:50:25.866Z,2.33
2024-04-13T11:52:56.406Z,2.40
2024-04-13T11:55:29.727Z,2.30
2024-04-13T11:57:59.417Z,2.50
2024-04-13T12:00:26.523Z,2.38
2024-04-13T12:02:57.668Z,1.90
2024-04-13T12:05:24.765Z,2.10
2024-04-13T12:07:54.578Z,2.28
2024-04-13T12:10:21.885Z,2.20
2024-04-13T12:12:54.257Z,2.40
2024-04-13T12:15:21.352Z,2.50
2024-04-13T12:17:51.036Z,2.10
2024-04-13T12:20:18.108Z,1.88
2024-04-13T12:22:47.751Z,2.20
2024-04-13T12:25:14.852Z,1.70
2024-04-13T12:27:44.553Z,1.85
2024-04-13T12:30:14.949Z,2.10
2024-04-13T12:32:44.808Z,2.03
2024-04-13T12:35:12.534Z,2.15
2024-04-13T12:37:42.216Z,2.13
2024-04-13T12:40:10.222Z,2.17
2024-04-13T12:42:39.940Z,2.03
2024-04-13T12:45:07.179Z,2.08
2024-04-13T12:47:40.066Z,1.70
2024-04-13T12:50:07.822Z,2.30
2024-04-13T12:52:37.834Z,2.03
2024-04-13T12:55:05.382Z,2.00
2024-04-13T12:57:35.122Z,2.00
2024-04-13T13:00:04.058Z,2.10
2024-04-13T13:02:33.941Z,2.03
2024-04-13T13:05:03.895Z,2.50
2024-04-13T13:07:33.767Z,2.00
2024-04-13T13:10:00.990Z,2.42
2024-04-13T13:12:30.779Z,2.42
2024-04-13T13:14:57.741Z,1.90
2024-04-13T13:17:28.047Z,3.38
2024-04-13T13:19:55.315Z,2.13
2024-04-13T13:22:27.530Z,2.10
2024-04-13T13:24:54.572Z,2.72
2024-04-13T13:27:24.291Z,2.05
2024-04-13T13:29:51.533Z,2.00
2024-04-13T13:32:21.177Z,2.00
2024-04-13T13:34:48.215Z,2.22
2024-04-13T13:37:17.875Z,2.00
2024-04-13T13:39:47.541Z,2.40
2024-04-13T13:42:17.182Z,2.92
2024-04-13T13:44:44.217Z,2.03
2024-04-13T13:47:13.850Z,2.05
2024-04-13T13:49:40.819Z,2.20
2024-04-13T13:52:10.448Z,2.17
2024-04-13T13:54:37.468Z,1.63
2024-04-13T13:57:10.557Z,2.33
2024-04-13T13:59:37.634Z,1.90
2024-04-13T14:02:07.673Z,2.03
2024-04-13T14:04:34.739Z,2.00
2024-04-13T14:07:04.460Z,2.00
2024-04-13T14:09:33.270Z,1.88
2024-04-13T14:12:02.870Z,1.80
2024-04-13T14:14:32.585Z,1.80
2024-04-13T14:17:02.290Z,1.88
2024-04-13T14:19:29.561Z,1.80
2024-04-13T14:21:59.212Z,2.20
2024-04-13T14:24:27.576Z,1.90
2024-04-13T14:26:57.240Z,2.10
2024-04-13T14:29:24.345Z,2.00
2024-04-13T14:31:56.580Z,2.03
2024-04-13T14:34:23.629Z,2.10
2024-04-13T14:36:53.357Z,1.70
2024-04-13T14:39:20.473Z,1.80
2024-04-13T14:41:50.183Z,1.88
2024-04-13T14:44:17.290Z,1.70
2024-04-13T14:46:48.433Z,1.90
2024-04-13T14:49:18.140Z,2.23
2024-04-13T14:51:47.878Z,2.15
2024-04-13T14:54:14.957Z,2.00
2024-04-13T14:56:45.874Z,1.58
2024-04-13T14:59:12.883Z,1.73
2024-04-13T15:01:43.087Z,1.65
2024-04-13T15:04:10.550Z,1.70
2024-04-13T15:06:42.957Z,1.42
2024-04-13T15:09:09.960Z,1.60
2024-04-13T15:11:39.575Z,1.55
2024-04-13T15:14:06.565Z,1.50
2024-04-13T15:16:36.343Z,1.85
2024-04-13T15:19:03.678Z,2.00
2024-04-13T15:21:33.406Z,4.15
2024-04-13T15:24:03.149Z,4.30
2024-04-13T15:26:32.852Z,4.18
2024-04-13T15:29:00.199Z,2.70
2024-04-13T15:31:30.322Z,3.97
2024-04-13T15:33:57.396Z,1.80
2024-04-13T15:36:27.245Z,1.75
2024-04-13T15:38:54.311Z,1.80
2024-04-13T15:41:26.651Z,1.85
2024-04-13T15:43:53.743Z,1.90
2024-04-13T15:46:23.403Z,2.00
2024-04-13T15:48:50.502Z,1.67
2024-04-13T15:51:20.225Z,1.80
2024-04-13T15:53:47.204Z,1.95
2024-04-13T15:56:16.803Z,1.60
2024-04-13T15:58:46.440Z,1.90
2024-04-13T16:01:16.175Z,2.13
2024-04-13T16:03:43.334Z,2.10
2024-04-13T16:06:13.070Z,1.95
2024-04-13T16:08:40.079Z,2.30
2024-04-13T16:11:09.888Z,2.10
2024-04-13T16:13:38.101Z,1.80
2024-04-13T16:16:18.411Z,2.05
2024-04-13T16:18:50.910Z,1.80
2024-04-13T16:21:20.651Z,2.08
2024-04-13T16:23:47.769Z,1.67
2024-04-13T16:26:17.466Z,1.60
2024-04-13T16:28:44.440Z,1.90
2024-04-13T16:31:16.734Z,1.83
2024-04-13T16:33:43.767Z,2.03
2024-04-13T16:36:13.441Z,2.17
2024-04-13T16:38:40.569Z,1.95
2024-04-13T16:41:10.439Z,1.80
2024-04-13T16:43:37.446Z,2.05
2024-04-13T16:46:07.360Z,1.60
2024-04-13T16:48:37.296Z,1.60
2024-04-13T16:51:07.150Z,1.70
2024-04-13T16:53:36.021Z,1.80
2024-04-13T16:56:07.265Z,1.67
2024-04-13T16:58:34.434Z,1.40
2024-04-13T17:01:04.255Z,1.92
2024-04-13T17:03:31.406Z,1.67
2024-04-13T17:06:03.768Z,1.50
2024-04-13T17:08:30.758Z,1.60
2024-04-13T17:11:00.422Z,1.92
2024-04-13T17:13:27.500Z,1.75
2024-04-13T17:15:57.207Z,1.80
2024-04-13T17:18:24.445Z,1.90
2024-04-13T17:20:54.472Z,1.70
2024-04-13T17:23:24.132Z,1.55
2024-04-13T17:25:54.606Z,1.70
2024-04-13T17:28:21.707Z,1.20
2024-04-13T17:30:51.433Z,1.40
2024-04-13T17:33:18.544Z,1.75
2024-04-13T17:35:49.800Z,1.80
2024-04-13T17:38:17.083Z,1.70
2024-04-13T17:40:49.294Z,1.73
2024-04-13T17:43:16.266Z,1.30
2024-04-13T17:45:45.868Z,1.70
2024-04-13T17:48:12.997Z,1.65
2024-04-13T17:50:42.606Z,1.80
2024-04-13T17:53:10.675Z,1.70
2024-04-13T17:55:40.306Z,1.40
2024-04-13T17:58:10.107Z,1.75
2024-04-13T18:00:40.240Z,1.40
2024-04-13T18:03:07.320Z,1.35
2024-04-13T18:05:37.053Z,1.40
2024-04-13T18:08:05.618Z,1.60
2024-04-13T18:10:35.308Z,1.50
2024-04-13T18:13:02.404Z,1.58
2024-04-13T18:15:34.745Z,1.48
2024-04-13T18:20:31.473Z,1.38
2024-04-13T18:22:58.442Z,1.75
2024-04-13T18:25:28.209Z,1.30
2024-04-13T18:27:55.483Z,1.48
2024-04-13T18:30:25.142Z,1.48
2024-04-13T18:32:54.907Z,1.52
2024-04-13T18:35:24.652Z,1.50
2024-04-13T18:37:52.947Z,1.65
2024-04-13T18:40:22.684Z,1.63
2024-04-13T18:42:49.768Z,1.60
2024-04-13T18:45:21.037Z,1.58
2024-04-13T18:47:48.554Z,1.77
2024-04-13T18:50:20.964Z,1.60
2024-04-13T18:55:20.707Z,1.73
2024-04-13T18:57:47.746Z,1.65
2024-04-13T19:00:18.735Z,1.95
2024-04-13T19:02:46.739Z,3.70
2024-04-13T19:05:16.457Z,8.90
2024-04-13T19:07:46.135Z,9.23
2024-04-13T19:10:15.914Z,6.50
2024-04-13T19:12:43.026Z,4.85
2024-04-13T19:15:13.520Z,4.30
2024-04-13T19:17:41.059Z,3.80
2024-04-13T19:20:11.223Z,3.70
2024-04-13T19:22:38.168Z,3.78
2024-04-13T19:25:10.648Z,3.47
2024-04-13T19:27:37.690Z,3.08
2024-04-13T19:30:11.687Z,2.95
2024-04-13T19:32:38.830Z,2.85
2024-04-13T19:35:08.636Z,2.65
2024-04-13T19:37:35.786Z,2.90
2024-04-13T19:40:07.792Z,2.90
2024-04-13T19:42:37.602Z,3.35
2024-04-13T19:45:08.320Z,2.85
2024-04-13T19:47:35.473Z,2.75
2024-04-13T19:50:05.948Z,2.97
2024-04-13T19:52:33.110Z,3.00
2024-04-13T19:55:03.180Z,2.88
2024-04-13T19:57:30.456Z,3.55
2024-04-13T20:00:06.049Z,3.13
2024-04-13T20:02:34.029Z,3.38
2024-04-13T20:05:05.616Z,3.53
2024-04-13T20:07:32.809Z,3.47
2024-04-13T20:10:02.601Z,3.75
2024-04-13T20:12:29.716Z,3.35
2024-04-13T20:15:18.126Z,3.28
2024-04-13T20:18:02.905Z,3.10
2024-04-13T20:20:32.574Z,3.03
2024-04-13T20:23:02.293Z,2.70
2024-04-13T20:25:36.638Z,3.08
2024-04-13T20:28:06.461Z,2.70
2024-04-13T20:30:38.850Z,3.08
2024-04-13T20:35:35.749Z,2.63
2024-04-13T20:38:03.109Z,2.72
2024-04-13T20:40:32.810Z,2.70
2024-04-13T20:43:01.495Z,2.53
2024-04-13T20:45:31.194Z,2.60
2024-04-13T20:48:00.925Z,2.80
2024-04-13T20:50:30.635Z,2.60
2024-04-13T20:53:01.586Z,2.50
2024-04-13T20:55:32.023Z,2.30
2024-04-13T20:57:59.178Z,2.42
2024-04-13T21:00:31.461Z,2.65
2024-04-13T21:05:34.452Z,2.92
2024-04-13T21:08:01.965Z,2.58
2024-04-13T21:10:32.368Z,2.50
2024-04-13T21:13:01.466Z,2.33
2024-04-13T21:15:36.126Z,2.25
2024-04-13T21:18:07.946Z,2.40
2024-04-13T21:20:38.322Z,2.65
2024-04-13T21:23:05.549Z,2.50
2024-04-13T21:25:39.491Z,2.50
2024-04-13T21:28:08.127Z,2.35
2024-04-13T21:30:39.177Z,2.90
2024-04-13T21:33:09.084Z,2.88
2024-04-13T21:35:38.956Z,2.53
2024-04-13T21:38:05.953Z,2.40
2024-04-13T21:40:35.588Z,2.40
2024-04-13T21:43:03.452Z,3.10
2024-04-13T21:45:33.191Z,2.97
2024-04-13T21:48:00.427Z,3.38
2024-04-13T21:50:32.780Z,3.60
2024-04-13T21:53:00.678Z,3.70
2024-04-13T21:55:30.290Z,3.25
2024-04-13T21:57:58.211Z,3.65
2024-04-13T22:00:28.252Z,3.25
2024-04-13T22:06:38.755Z,3.60
2024-04-13T22:09:08.736Z,2.85
2024-04-13T22:11:38.784Z,3.10
2024-04-13T22:14:05.789Z,3.15
2024-04-13T22:16:35.430Z,3.55
2024-04-13T22:19:03.269Z,3.00
2024-04-13T22:21:33.095Z,3.50
2024-04-13T22:24:03.159Z,3.67
2024-04-13T22:26:33.539Z,3.85
2024-04-13T22:29:00.568Z,3.70
2024-04-13T22:31:30.120Z,3.65
2024-04-13T22:33:57.227Z,4.43
2024-04-13T22:36:32.339Z,3.58
2024-04-13T22:38:59.494Z,3.40
2024-04-13T22:41:31.837Z,2.58
2024-04-13T22:43:58.904Z,2.90
2024-04-13T22:46:28.494Z,3.22
2024-04-13T22:48:55.564Z,3.08
2024-04-13T22:51:25.337Z,3.25
2024-04-13T22:53:52.386Z,3.00
2024-04-13T22:56:22.059Z,3.08
2024-04-13T22:58:51.692Z,3.17
2024-04-13T23:01:21.620Z,2.75
2024-04-13T23:03:48.751Z,3.40
2024-04-13T23:06:18.414Z,3.00
2024-04-13T23:08:45.442Z,3.00
2024-04-13T23:11:15.109Z,3.60
2024-04-13T23:13:44.176Z,2.88
2024-04-13T23:16:16.564Z,3.90
2024-04-13T23:18:43.748Z,3.67
2024-04-13T23:21:13.365Z,3.47
2024-04-13T23:23:40.338Z,3.38
2024-04-13T23:26:10.031Z,3.63
2024-04-13T23:28:37.000Z,3.90
2024-04-13T23:31:06.930Z,3.45
2024-04-13T23:33:36.657Z,3.38
2024-04-13T23:36:06.623Z,4.57
2024-04-13T23:38:33.740Z,2.88
2024-04-13T23:41:03.517Z,3.88
2024-04-13T23:43:30.623Z,3.47
2024-04-13T23:46:04.576Z,3.08
2024-04-13T23:48:31.740Z,3.42
2024-04-13T23:51:05.216Z,3.60
2024-04-13T23:53:33.373Z,3.50
2024-04-13T23:56:03.058Z,3.55
2024-04-13T23:58:30.999Z,3.33
